sensor_id;sensor_type;location;lat;lon;timestamp;temperature;humidity
3690;DHT22;1861;50.240;8.596;2023-12-07T00:01:23;5.40;99.90
3690;DHT22;1861;50.240;8.596;2023-12-07T00:03:51;5.40;99.90
3690;DHT22;1861;50.240;8.596;2023-12-07T00:06:20;5.50;99.90
3690;DHT22;1861;50.240;8.596;2023-12-07T00:08:48;5.50;99.90
3690;DHT22;1861;50.240;8.596;2023-12-07T00:11:16;5.40;99.90
3690;DHT22;1861;50.240;8.596;2023-12-07T00:13:44;5.50;99.90
3690;DHT22;1861;50.240;8.596;2023-12-07T00:16:13;5.40;99.90
3690;DHT22;1861;50.240;8.596;2023-12-07T00:18:42;5.40;99.90
3690;DHT22;1861;50.240;8.596;2023-12-07T00:21:11;5.50;99.90
3690;DHT22;1861;50.240;8.596;2023-12-07T00:23:39;5.40;99.90
3690;DHT22;1861;50.240;8.596;2023-12-07T00:26:07;5.40;99.90
3690;DHT22;1861;50.240;8.596;2023-12-07T00:28:37;5.40;99.90
3690;DHT22;1861;50.240;8.596;2023-12-07T00:31:06;5.40;99.90
3690;DHT22;1861;50.240;8.596;2023-12-07T00:33:36;5.40;99.90
3690;DHT22;1861;50.240;8.596;2023-12-07T00:36:04;5.30;99.90
3690;DHT22;1861;50.240;8.596;2023-12-07T00:38:33;5.20;99.90
3690;DHT22;1861;50.240;8.596;2023-12-07T00:41:01;5.20;99.90
3690;DHT22;1861;50.240;8.596;2023-12-07T00:43:29;5.30;99.90
3690;DHT22;1861;50.240;8.596;2023-12-07T00:45:57;5.20;99.90
3690;DHT22;1861;50.240;8.596;2023-12-07T00:48:25;5.30;99.90
3690;DHT22;1861;50.240;8.596;2023-12-07T00:50:55;5.30;99.90
3690;DHT22;1861;50.240;8.596;2023-12-07T00:53:23;5.30;99.90
3690;DHT22;1861;50.240;8.596;2023-12-07T00:55:51;5.30;99.90
3690;DHT22;1861;50.240;8.596;2023-12-07T00:58:19;5.30;99.90
3690;DHT22;1861;50.240;8.596;2023-12-07T01:00:47;5.20;99.90
3690;DHT22;1861;50.240;8.596;2023-12-07T01:03:15;5.30;99.90
3690;DHT22;1861;50.240;8.596;2023-12-07T01:05:43;5.30;99.90
3690;DHT22;1861;50.240;8.596;2023-12-07T01:08:14;5.30;99.90
3690;DHT22;1861;50.240;8.596;2023-12-07T01:10:42;5.30;99.90
3690;DHT22;1861;50.240;8.596;2023-12-07T01:13:10;5.20;99.90
3690;DHT22;1861;50.240;8.596;2023-12-07T01:15:38;5.30;99.90
3690;DHT22;1861;50.240;8.596;2023-12-07T01:18:07;5.50;99.90
3690;DHT22;1861;50.240;8.596;2023-12-07T01:20:35;5.60;99.90
3690;DHT22;1861;50.240;8.596;2023-12-07T01:23:03;5.60;99.90
3690;DHT22;1861;50.240;8.596;2023-12-07T01:25:32;5.60;99.90
3690;DHT22;1861;50.240;8.596;2023-12-07T01:28:00;5.70;99.90
3690;DHT22;1861;50.240;8.596;2023-12-07T01:30:29;5.70;99.90
3690;DHT22;1861;50.240;8.596;2023-12-07T01:32:57;5.70;99.90
3690;DHT22;1861;50.240;8.596;2023-12-07T01:35:25;5.70;99.90
3690;DHT22;1861;50.240;8.596;2023-12-07T01:37:53;5.80;99.90
3690;DHT22;1861;50.240;8.596;2023-12-07T01:40:21;5.80;99.90
3690;DHT22;1861;50.240;8.596;2023-12-07T01:42:51;6.00;99.90
3690;DHT22;1861;50.240;8.596;2023-12-07T01:45:20;5.80;99.90
3690;DHT22;1861;50.240;8.596;2023-12-07T01:47:50;5.80;99.90
3690;DHT22;1861;50.240;8.596;2023-12-07T01:50:19;5.80;99.90
3690;DHT22;1861;50.240;8.596;2023-12-07T01:52:54;5.70;99.90
3690;DHT22;1861;50.240;8.596;2023-12-07T01:55:25;5.80;99.90
3690;DHT22;1861;50.240;8.596;2023-12-07T01:57:56;5.80;99.90
3690;DHT22;1861;50.240;8.596;2023-12-07T02:00:25;5.70;99.90
3690;DHT22;1861;50.240;8.596;2023-12-07T02:02:54;5.70;99.90
3690;DHT22;1861;50.240;8.596;2023-12-07T02:05:23;5.70;99.90
3690;DHT22;1861;50.240;8.596;2023-12-07T02:07:52;5.70;99.90
3690;DHT22;1861;50.240;8.596;2023-12-07T02:10:20;5.60;99.90
3690;DHT22;1861;50.240;8.596;2023-12-07T02:12:48;5.60;99.90
3690;DHT22;1861;50.240;8.596;2023-12-07T02:15:18;5.60;99.90
3690;DHT22;1861;50.240;8.596;2023-12-07T02:17:52;5.60;99.90
3690;DHT22;1861;50.240;8.596;2023-12-07T02:20:28;5.50;99.90
3690;DHT22;1861;50.240;8.596;2023-12-07T02:23:00;5.50;99.90
3690;DHT22;1861;50.240;8.596;2023-12-07T02:25:32;5.40;99.90
3690;DHT22;1861;50.240;8.596;2023-12-07T02:28:03;5.40;99.90
3690;DHT22;1861;50.240;8.596;2023-12-07T02:30:32;5.30;99.90
3690;DHT22;1861;50.240;8.596;2023-12-07T02:33:00;5.30;99.90
3690;DHT22;1861;50.240;8.596;2023-12-07T02:35:29;5.30;99.90
3690;DHT22;1861;50.240;8.596;2023-12-07T02:37:58;5.30;99.90
3690;DHT22;1861;50.240;8.596;2023-12-07T02:40:27;5.10;99.90
3690;DHT22;1861;50.240;8.596;2023-12-07T02:42:56;5.10;99.90
3690;DHT22;1861;50.240;8.596;2023-12-07T02:45:26;5.10;99.90
3690;DHT22;1861;50.240;8.596;2023-12-07T02:47:54;5.10;99.90
3690;DHT22;1861;50.240;8.596;2023-12-07T02:50:22;5.00;99.90
3690;DHT22;1861;50.240;8.596;2023-12-07T02:52:51;5.10;99.90
3690;DHT22;1861;50.240;8.596;2023-12-07T02:55:19;5.00;99.90
3690;DHT22;1861;50.240;8.596;2023-12-07T02:57:47;5.00;99.90
3690;DHT22;1861;50.240;8.596;2023-12-07T03:00:15;5.00;99.90
3690;DHT22;1861;50.240;8.596;2023-12-07T03:02:45;5.00;99.90
3690;DHT22;1861;50.240;8.596;2023-12-07T03:05:14;4.90;99.90
3690;DHT22;1861;50.240;8.596;2023-12-07T03:07:42;4.80;99.90
3690;DHT22;1861;50.240;8.596;2023-12-07T03:10:10;4.80;99.90
3690;DHT22;1861;50.240;8.596;2023-12-07T03:12:39;4.80;99.90
3690;DHT22;1861;50.240;8.596;2023-12-07T03:15:07;4.90;99.90
3690;DHT22;1861;50.240;8.596;2023-12-07T03:17:36;4.90;99.90
3690;DHT22;1861;50.240;8.596;2023-12-07T03:20:07;5.00;99.90
3690;DHT22;1861;50.240;8.596;2023-12-07T03:22:37;4.90;99.90
3690;DHT22;1861;50.240;8.596;2023-12-07T03:25:05;4.90;99.90
3690;DHT22;1861;50.240;8.596;2023-12-07T03:27:33;4.90;99.90
3690;DHT22;1861;50.240;8.596;2023-12-07T03:30:02;4.90;99.90
3690;DHT22;1861;50.240;8.596;2023-12-07T03:32:30;4.90;99.90
3690;DHT22;1861;50.240;8.596;2023-12-07T03:34:58;4.90;99.90
3690;DHT22;1861;50.240;8.596;2023-12-07T03:37:28;4.90;99.90
3690;DHT22;1861;50.240;8.596;2023-12-07T03:39:56;4.90;99.90
3690;DHT22;1861;50.240;8.596;2023-12-07T03:42:24;4.80;99.90
3690;DHT22;1861;50.240;8.596;2023-12-07T03:45:12;4.80;99.90
3690;DHT22;1861;50.240;8.596;2023-12-07T03:47:40;4.90;99.90
3690;DHT22;1861;50.240;8.596;2023-12-07T03:50:09;5.00;99.90
3690;DHT22;1861;50.240;8.596;2023-12-07T03:52:38;5.10;99.90
3690;DHT22;1861;50.240;8.596;2023-12-07T03:55:07;5.00;99.90
3690;DHT22;1861;50.240;8.596;2023-12-07T03:57:37;5.10;99.90
3690;DHT22;1861;50.240;8.596;2023-12-07T04:00:06;5.10;99.90
3690;DHT22;1861;50.240;8.596;2023-12-07T04:02:36;5.10;99.90
3690;DHT22;1861;50.240;8.596;2023-12-07T04:05:04;4.80;99.90
3690;DHT22;1861;50.240;8.596;2023-12-07T04:07:32;4.80;99.90
3690;DHT22;1861;50.240;8.596;2023-12-07T04:10:02;4.90;99.90
3690;DHT22;1861;50.240;8.596;2023-12-07T04:12:32;4.90;99.90
3690;DHT22;1861;50.240;8.596;2023-12-07T04:15:01;4.90;99.90
3690;DHT22;1861;50.240;8.596;2023-12-07T04:17:30;4.60;99.90
3690;DHT22;1861;50.240;8.596;2023-12-07T04:19:58;4.60;99.90
3690;DHT22;1861;50.240;8.596;2023-12-07T04:22:26;4.70;99.90
3690;DHT22;1861;50.240;8.596;2023-12-07T04:24:55;4.50;99.90
3690;DHT22;1861;50.240;8.596;2023-12-07T04:27:25;4.50;99.90
3690;DHT22;1861;50.240;8.596;2023-12-07T04:29:53;4.60;99.90
3690;DHT22;1861;50.240;8.596;2023-12-07T04:32:21;4.60;99.90
3690;DHT22;1861;50.240;8.596;2023-12-07T04:34:50;4.70;99.90
3690;DHT22;1861;50.240;8.596;2023-12-07T04:37:18;4.50;99.90
3690;DHT22;1861;50.240;8.596;2023-12-07T04:39:46;4.60;99.90
3690;DHT22;1861;50.240;8.596;2023-12-07T04:42:14;4.40;99.90
3690;DHT22;1861;50.240;8.596;2023-12-07T04:44:44;4.60;99.90
3690;DHT22;1861;50.240;8.596;2023-12-07T04:47:12;4.60;99.90
3690;DHT22;1861;50.240;8.596;2023-12-07T04:49:40;4.50;99.90
3690;DHT22;1861;50.240;8.596;2023-12-07T04:52:08;4.40;99.90
3690;DHT22;1861;50.240;8.596;2023-12-07T04:54:36;4.40;99.90
3690;DHT22;1861;50.240;8.596;2023-12-07T04:57:05;4.40;99.90
3690;DHT22;1861;50.240;8.596;2023-12-07T04:59:34;4.60;99.90
3690;DHT22;1861;50.240;8.596;2023-12-07T05:02:06;4.40;99.90
3690;DHT22;1861;50.240;8.596;2023-12-07T05:04:34;4.40;99.90
3690;DHT22;1861;50.240;8.596;2023-12-07T05:07:03;4.30;99.90
3690;DHT22;1861;50.240;8.596;2023-12-07T05:09:31;4.40;99.90
3690;DHT22;1861;50.240;8.596;2023-12-07T05:11:59;4.50;99.90
3690;DHT22;1861;50.240;8.596;2023-12-07T05:14:27;4.50;99.90
3690;DHT22;1861;50.240;8.596;2023-12-07T05:16:55;4.50;99.90
3690;DHT22;1861;50.240;8.596;2023-12-07T05:19:25;4.50;99.90
3690;DHT22;1861;50.240;8.596;2023-12-07T05:21:53;4.50;99.90
3690;DHT22;1861;50.240;8.596;2023-12-07T05:24:22;4.50;99.90
3690;DHT22;1861;50.240;8.596;2023-12-07T05:26:50;4.40;99.90
3690;DHT22;1861;50.240;8.596;2023-12-07T05:29:18;4.50;99.90
3690;DHT22;1861;50.240;8.596;2023-12-07T05:31:48;4.50;99.90
3690;DHT22;1861;50.240;8.596;2023-12-07T05:34:16;4.40;99.90
3690;DHT22;1861;50.240;8.596;2023-12-07T05:36:47;4.30;99.90
3690;DHT22;1861;50.240;8.596;2023-12-07T05:39:15;4.20;99.90
3690;DHT22;1861;50.240;8.596;2023-12-07T05:41:44;4.30;99.90
3690;DHT22;1861;50.240;8.596;2023-12-07T05:44:14;4.50;99.90
3690;DHT22;1861;50.240;8.596;2023-12-07T05:46:48;4.50;99.90
3690;DHT22;1861;50.240;8.596;2023-12-07T05:49:17;4.50;99.90
3690;DHT22;1861;50.240;8.596;2023-12-07T05:51:46;4.40;99.90
3690;DHT22;1861;50.240;8.596;2023-12-07T05:54:15;4.40;99.90
3690;DHT22;1861;50.240;8.596;2023-12-07T05:56:44;4.40;99.90
3690;DHT22;1861;50.240;8.596;2023-12-07T05:59:13;4.10;99.90
3690;DHT22;1861;50.240;8.596;2023-12-07T06:01:41;4.20;99.90
3690;DHT22;1861;50.240;8.596;2023-12-07T06:04:10;4.10;99.90
3690;DHT22;1861;50.240;8.596;2023-12-07T06:06:39;4.10;99.90
3690;DHT22;1861;50.240;8.596;2023-12-07T06:09:09;4.00;99.90
3690;DHT22;1861;50.240;8.596;2023-12-07T06:11:37;4.10;99.90
3690;DHT22;1861;50.240;8.596;2023-12-07T06:14:05;4.20;99.90
3690;DHT22;1861;50.240;8.596;2023-12-07T06:16:34;4.20;99.90
3690;DHT22;1861;50.240;8.596;2023-12-07T06:19:03;4.10;99.90
3690;DHT22;1861;50.240;8.596;2023-12-07T06:21:31;4.10;99.90
3690;DHT22;1861;50.240;8.596;2023-12-07T06:24:00;4.10;99.90
3690;DHT22;1861;50.240;8.596;2023-12-07T06:26:29;4.10;99.90
3690;DHT22;1861;50.240;8.596;2023-12-07T06:28:57;4.20;99.90
3690;DHT22;1861;50.240;8.596;2023-12-07T06:31:26;4.20;99.90
3690;DHT22;1861;50.240;8.596;2023-12-07T06:33:54;4.10;99.90
3690;DHT22;1861;50.240;8.596;2023-12-07T06:36:23;4.00;99.90
3690;DHT22;1861;50.240;8.596;2023-12-07T06:38:53;4.10;99.90
3690;DHT22;1861;50.240;8.596;2023-12-07T06:41:21;4.00;99.90
3690;DHT22;1861;50.240;8.596;2023-12-07T06:43:51;4.00;99.90
3690;DHT22;1861;50.240;8.596;2023-12-07T06:46:21;4.10;99.90
3690;DHT22;1861;50.240;8.596;2023-12-07T06:48:49;4.10;99.90
3690;DHT22;1861;50.240;8.596;2023-12-07T06:51:18;4.00;99.90
3690;DHT22;1861;50.240;8.596;2023-12-07T06:53:46;4.00;99.90
3690;DHT22;1861;50.240;8.596;2023-12-07T06:56:14;4.00;99.90
3690;DHT22;1861;50.240;8.596;2023-12-07T06:58:42;4.10;99.90
3690;DHT22;1861;50.240;8.596;2023-12-07T07:01:13;4.20;99.90
3690;DHT22;1861;50.240;8.596;2023-12-07T07:03:41;4.00;99.90
3690;DHT22;1861;50.240;8.596;2023-12-07T07:06:10;3.90;99.90
3690;DHT22;1861;50.240;8.596;2023-12-07T07:08:38;4.00;99.90
3690;DHT22;1861;50.240;8.596;2023-12-07T07:11:11;3.90;99.90
3690;DHT22;1861;50.240;8.596;2023-12-07T07:13:40;3.90;99.90
3690;DHT22;1861;50.240;8.596;2023-12-07T07:16:09;3.80;99.90
3690;DHT22;1861;50.240;8.596;2023-12-07T07:18:39;4.00;99.90
3690;DHT22;1861;50.240;8.596;2023-12-07T07:21:07;4.00;99.90
3690;DHT22;1861;50.240;8.596;2023-12-07T07:23:35;4.00;99.90
3690;DHT22;1861;50.240;8.596;2023-12-07T07:26:04;4.00;99.90
3690;DHT22;1861;50.240;8.596;2023-12-07T07:28:32;3.90;99.90
3690;DHT22;1861;50.240;8.596;2023-12-07T07:31:01;4.00;99.90
3690;DHT22;1861;50.240;8.596;2023-12-07T07:33:30;3.90;99.90
3690;DHT22;1861;50.240;8.596;2023-12-07T07:36:00;4.00;99.90
3690;DHT22;1861;50.240;8.596;2023-12-07T07:38:28;3.90;99.90
3690;DHT22;1861;50.240;8.596;2023-12-07T07:40:57;3.90;99.90
3690;DHT22;1861;50.240;8.596;2023-12-07T07:43:25;3.90;99.90
3690;DHT22;1861;50.240;8.596;2023-12-07T07:45:53;3.80;99.90
3690;DHT22;1861;50.240;8.596;2023-12-07T07:48:21;3.90;99.90
3690;DHT22;1861;50.240;8.596;2023-12-07T07:50:49;4.00;99.90
3690;DHT22;1861;50.240;8.596;2023-12-07T07:53:19;4.00;99.90
3690;DHT22;1861;50.240;8.596;2023-12-07T07:55:47;3.90;99.90
3690;DHT22;1861;50.240;8.596;2023-12-07T07:58:16;4.00;99.90
3690;DHT22;1861;50.240;8.596;2023-12-07T08:00:44;4.10;99.90
3690;DHT22;1861;50.240;8.596;2023-12-07T08:03:13;4.10;99.90
3690;DHT22;1861;50.240;8.596;2023-12-07T08:05:41;4.00;99.90
3690;DHT22;1861;50.240;8.596;2023-12-07T08:08:10;4.20;99.90
3690;DHT22;1861;50.240;8.596;2023-12-07T08:10:39;4.10;99.90
3690;DHT22;1861;50.240;8.596;2023-12-07T08:13:22;4.10;99.90
3690;DHT22;1861;50.240;8.596;2023-12-07T08:15:50;4.10;99.90
3690;DHT22;1861;50.240;8.596;2023-12-07T08:18:22;4.00;99.90
3690;DHT22;1861;50.240;8.596;2023-12-07T08:20:51;4.10;99.90
3690;DHT22;1861;50.240;8.596;2023-12-07T08:23:19;4.20;99.90
3690;DHT22;1861;50.240;8.596;2023-12-07T08:25:48;4.30;99.90
3690;DHT22;1861;50.240;8.596;2023-12-07T08:28:17;4.30;99.90
3690;DHT22;1861;50.240;8.596;2023-12-07T08:30:45;4.30;99.90
3690;DHT22;1861;50.240;8.596;2023-12-07T08:33:13;4.30;99.90
3690;DHT22;1861;50.240;8.596;2023-12-07T08:35:41;4.20;99.90
3690;DHT22;1861;50.240;8.596;2023-12-07T08:38:10;4.10;99.90
3690;DHT22;1861;50.240;8.596;2023-12-07T08:40:38;4.20;99.90
3690;DHT22;1861;50.240;8.596;2023-12-07T08:43:07;4.10;99.90
3690;DHT22;1861;50.240;8.596;2023-12-07T08:45:36;4.20;99.90
3690;DHT22;1861;50.240;8.596;2023-12-07T08:48:05;4.30;99.90
3690;DHT22;1861;50.240;8.596;2023-12-07T08:50:33;4.40;99.90
3690;DHT22;1861;50.240;8.596;2023-12-07T08:53:02;4.40;99.90
3690;DHT22;1861;50.240;8.596;2023-12-07T08:55:31;4.30;99.90
3690;DHT22;1861;50.240;8.596;2023-12-07T08:57:59;4.40;99.90
3690;DHT22;1861;50.240;8.596;2023-12-07T09:00:32;4.50;99.90
3690;DHT22;1861;50.240;8.596;2023-12-07T09:03:00;4.40;99.90
3690;DHT22;1861;50.240;8.596;2023-12-07T09:05:29;4.50;99.90
3690;DHT22;1861;50.240;8.596;2023-12-07T09:07:58;4.50;99.90
3690;DHT22;1861;50.240;8.596;2023-12-07T09:10:26;4.50;99.90
3690;DHT22;1861;50.240;8.596;2023-12-07T09:12:55;4.60;99.90
3690;DHT22;1861;50.240;8.596;2023-12-07T09:15:23;4.60;99.90
3690;DHT22;1861;50.240;8.596;2023-12-07T09:17:53;4.60;99.90
3690;DHT22;1861;50.240;8.596;2023-12-07T09:20:21;4.60;99.90
3690;DHT22;1861;50.240;8.596;2023-12-07T09:22:50;4.50;99.90
3690;DHT22;1861;50.240;8.596;2023-12-07T09:25:18;4.50;99.90
3690;DHT22;1861;50.240;8.596;2023-12-07T09:27:47;4.40;99.90
3690;DHT22;1861;50.240;8.596;2023-12-07T09:30:15;4.50;99.90
3690;DHT22;1861;50.240;8.596;2023-12-07T09:32:44;4.60;99.90
3690;DHT22;1861;50.240;8.596;2023-12-07T09:35:13;4.60;99.90
3690;DHT22;1861;50.240;8.596;2023-12-07T09:37:47;4.60;99.90
3690;DHT22;1861;50.240;8.596;2023-12-07T09:40:16;4.70;99.90
3690;DHT22;1861;50.240;8.596;2023-12-07T09:42:45;4.70;99.90
3690;DHT22;1861;50.240;8.596;2023-12-07T09:45:14;4.70;99.90
3690;DHT22;1861;50.240;8.596;2023-12-07T09:47:47;4.70;99.90
3690;DHT22;1861;50.240;8.596;2023-12-07T09:50:18;4.70;99.90
3690;DHT22;1861;50.240;8.596;2023-12-07T09:52:49;4.70;99.90
3690;DHT22;1861;50.240;8.596;2023-12-07T09:55:30;4.80;99.90
3690;DHT22;1861;50.240;8.596;2023-12-07T09:58:01;4.70;99.90
3690;DHT22;1861;50.240;8.596;2023-12-07T10:00:31;4.70;99.90
3690;DHT22;1861;50.240;8.596;2023-12-07T10:03:00;4.80;99.90
3690;DHT22;1861;50.240;8.596;2023-12-07T10:05:29;4.80;99.90
3690;DHT22;1861;50.240;8.596;2023-12-07T10:07:58;4.70;99.90
3690;DHT22;1861;50.240;8.596;2023-12-07T10:10:26;4.70;99.90
3690;DHT22;1861;50.240;8.596;2023-12-07T10:12:55;4.90;99.90
3690;DHT22;1861;50.240;8.596;2023-12-07T10:15:25;4.90;99.90
3690;DHT22;1861;50.240;8.596;2023-12-07T10:17:54;4.90;99.90
3690;DHT22;1861;50.240;8.596;2023-12-07T10:20:25;5.00;99.90
3690;DHT22;1861;50.240;8.596;2023-12-07T10:23:06;5.10;99.90
3690;DHT22;1861;50.240;8.596;2023-12-07T10:25:36;5.10;99.90
3690;DHT22;1861;50.240;8.596;2023-12-07T10:28:05;5.20;99.90
3690;DHT22;1861;50.240;8.596;2023-12-07T10:30:36;5.20;99.90
3690;DHT22;1861;50.240;8.596;2023-12-07T10:33:07;5.10;99.90
3690;DHT22;1861;50.240;8.596;2023-12-07T10:35:38;5.10;99.90
3690;DHT22;1861;50.240;8.596;2023-12-07T10:38:09;5.20;99.90
3690;DHT22;1861;50.240;8.596;2023-12-07T10:40:37;5.20;99.90
3690;DHT22;1861;50.240;8.596;2023-12-07T10:43:06;5.30;99.90
3690;DHT22;1861;50.240;8.596;2023-12-07T10:45:35;5.20;99.90
3690;DHT22;1861;50.240;8.596;2023-12-07T10:48:06;5.30;99.90
3690;DHT22;1861;50.240;8.596;2023-12-07T10:50:36;5.30;99.90
3690;DHT22;1861;50.240;8.596;2023-12-07T10:53:14;5.30;99.90
3690;DHT22;1861;50.240;8.596;2023-12-07T10:55:46;5.30;99.90
3690;DHT22;1861;50.240;8.596;2023-12-07T10:58:17;5.40;99.90
3690;DHT22;1861;50.240;8.596;2023-12-07T11:00:45;5.40;99.90
3690;DHT22;1861;50.240;8.596;2023-12-07T11:03:16;5.40;99.90
3690;DHT22;1861;50.240;8.596;2023-12-07T11:05:46;5.40;99.90
3690;DHT22;1861;50.240;8.596;2023-12-07T11:08:23;5.50;99.90
3690;DHT22;1861;50.240;8.596;2023-12-07T11:11:02;5.50;99.90
3690;DHT22;1861;50.240;8.596;2023-12-07T11:13:35;5.50;99.90
3690;DHT22;1861;50.240;8.596;2023-12-07T11:16:04;5.50;99.90
3690;DHT22;1861;50.240;8.596;2023-12-07T11:18:33;5.50;99.90
3690;DHT22;1861;50.240;8.596;2023-12-07T11:21:02;5.50;99.90
3690;DHT22;1861;50.240;8.596;2023-12-07T11:23:31;5.50;99.90
3690;DHT22;1861;50.240;8.596;2023-12-07T11:25:59;5.60;99.90
3690;DHT22;1861;50.240;8.596;2023-12-07T11:28:35;5.60;99.90
3690;DHT22;1861;50.240;8.596;2023-12-07T11:31:06;5.50;99.90
3690;DHT22;1861;50.240;8.596;2023-12-07T11:33:37;5.50;99.90
3690;DHT22;1861;50.240;8.596;2023-12-07T11:36:07;5.40;99.90
3690;DHT22;1861;50.240;8.596;2023-12-07T11:38:38;5.50;99.90
3690;DHT22;1861;50.240;8.596;2023-12-07T11:41:06;5.50;99.90
3690;DHT22;1861;50.240;8.596;2023-12-07T11:43:41;5.50;99.90
3690;DHT22;1861;50.240;8.596;2023-12-07T11:46:14;5.50;99.90
3690;DHT22;1861;50.240;8.596;2023-12-07T11:48:48;5.40;99.90
3690;DHT22;1861;50.240;8.596;2023-12-07T11:51:17;5.40;99.90
3690;DHT22;1861;50.240;8.596;2023-12-07T11:53:47;5.30;99.90
3690;DHT22;1861;50.240;8.596;2023-12-07T11:56:17;5.30;99.90
3690;DHT22;1861;50.240;8.596;2023-12-07T11:58:48;5.30;99.90
3690;DHT22;1861;50.240;8.596;2023-12-07T12:01:17;5.30;99.90
3690;DHT22;1861;50.240;8.596;2023-12-07T12:03:45;5.20;99.90
3690;DHT22;1861;50.240;8.596;2023-12-07T12:06:13;5.30;99.90
3690;DHT22;1861;50.240;8.596;2023-12-07T12:08:42;5.10;99.90
3690;DHT22;1861;50.240;8.596;2023-12-07T12:11:12;5.20;99.90
3690;DHT22;1861;50.240;8.596;2023-12-07T12:13:40;5.20;99.90
3690;DHT22;1861;50.240;8.596;2023-12-07T12:16:09;5.30;99.90
3690;DHT22;1861;50.240;8.596;2023-12-07T12:18:37;5.30;99.90
3690;DHT22;1861;50.240;8.596;2023-12-07T12:21:07;5.30;99.90
3690;DHT22;1861;50.240;8.596;2023-12-07T12:23:36;5.30;99.90
3690;DHT22;1861;50.240;8.596;2023-12-07T12:26:05;5.30;99.90
3690;DHT22;1861;50.240;8.596;2023-12-07T12:28:35;5.30;99.90
3690;DHT22;1861;50.240;8.596;2023-12-07T12:31:10;5.20;99.90
3690;DHT22;1861;50.240;8.596;2023-12-07T12:33:39;5.30;99.90
3690;DHT22;1861;50.240;8.596;2023-12-07T12:36:08;5.30;99.90
3690;DHT22;1861;50.240;8.596;2023-12-07T12:38:37;5.20;99.90
3690;DHT22;1861;50.240;8.596;2023-12-07T12:41:10;5.20;99.90
3690;DHT22;1861;50.240;8.596;2023-12-07T12:43:41;5.30;99.90
3690;DHT22;1861;50.240;8.596;2023-12-07T12:46:12;5.30;99.90
3690;DHT22;1861;50.240;8.596;2023-12-07T12:48:53;5.30;99.90
3690;DHT22;1861;50.240;8.596;2023-12-07T12:51:24;5.30;99.90
3690;DHT22;1861;50.240;8.596;2023-12-07T12:53:54;5.30;99.90
3690;DHT22;1861;50.240;8.596;2023-12-07T12:56:23;5.20;99.90
3690;DHT22;1861;50.240;8.596;2023-12-07T12:58:53;5.30;99.90
3690;DHT22;1861;50.240;8.596;2023-12-07T13:01:29;5.30;99.90
3690;DHT22;1861;50.240;8.596;2023-12-07T13:03:58;5.40;99.90
3690;DHT22;1861;50.240;8.596;2023-12-07T13:06:26;5.30;99.90
3690;DHT22;1861;50.240;8.596;2023-12-07T13:08:55;5.30;99.90
3690;DHT22;1861;50.240;8.596;2023-12-07T13:11:24;5.30;99.90
3690;DHT22;1861;50.240;8.596;2023-12-07T13:13:54;5.30;99.90
3690;DHT22;1861;50.240;8.596;2023-12-07T13:16:22;5.30;99.90
3690;DHT22;1861;50.240;8.596;2023-12-07T13:18:50;5.30;99.90
3690;DHT22;1861;50.240;8.596;2023-12-07T13:21:20;5.30;99.90
3690;DHT22;1861;50.240;8.596;2023-12-07T13:23:49;5.40;99.90
3690;DHT22;1861;50.240;8.596;2023-12-07T13:26:18;5.40;99.90
3690;DHT22;1861;50.240;8.596;2023-12-07T13:28:47;5.30;99.90
3690;DHT22;1861;50.240;8.596;2023-12-07T13:31:16;5.30;99.90
3690;DHT22;1861;50.240;8.596;2023-12-07T13:33:44;5.40;99.90
3690;DHT22;1861;50.240;8.596;2023-12-07T13:36:22;5.40;99.90
3690;DHT22;1861;50.240;8.596;2023-12-07T13:38:53;5.40;99.90
3690;DHT22;1861;50.240;8.596;2023-12-07T13:41:21;5.30;99.90
3690;DHT22;1861;50.240;8.596;2023-12-07T13:43:49;5.30;99.90
3690;DHT22;1861;50.240;8.596;2023-12-07T13:46:19;5.40;99.90
3690;DHT22;1861;50.240;8.596;2023-12-07T13:48:48;5.30;99.90
3690;DHT22;1861;50.240;8.596;2023-12-07T13:51:17;5.30;99.90
3690;DHT22;1861;50.240;8.596;2023-12-07T13:53:45;5.40;99.90
3690;DHT22;1861;50.240;8.596;2023-12-07T13:56:15;5.30;99.90
3690;DHT22;1861;50.240;8.596;2023-12-07T13:58:43;5.20;99.90
3690;DHT22;1861;50.240;8.596;2023-12-07T14:01:11;5.20;99.90
3690;DHT22;1861;50.240;8.596;2023-12-07T14:03:41;5.20;99.90
3690;DHT22;1861;50.240;8.596;2023-12-07T14:06:10;5.30;99.90
3690;DHT22;1861;50.240;8.596;2023-12-07T14:08:50;5.30;99.90
3690;DHT22;1861;50.240;8.596;2023-12-07T14:11:19;5.20;99.90
3690;DHT22;1861;50.240;8.596;2023-12-07T14:13:47;5.10;99.90
3690;DHT22;1861;50.240;8.596;2023-12-07T14:16:15;5.10;99.90
3690;DHT22;1861;50.240;8.596;2023-12-07T14:18:59;5.10;99.90
3690;DHT22;1861;50.240;8.596;2023-12-07T14:21:41;5.20;99.90
3690;DHT22;1861;50.240;8.596;2023-12-07T14:24:22;5.20;99.90
3690;DHT22;1861;50.240;8.596;2023-12-07T14:26:51;5.20;99.90
3690;DHT22;1861;50.240;8.596;2023-12-07T14:29:20;5.20;99.90
3690;DHT22;1861;50.240;8.596;2023-12-07T14:31:53;5.30;99.90
3690;DHT22;1861;50.240;8.596;2023-12-07T14:34:23;5.20;99.90
3690;DHT22;1861;50.240;8.596;2023-12-07T14:37:01;5.30;99.90
3690;DHT22;1861;50.240;8.596;2023-12-07T14:39:33;5.20;99.90
3690;DHT22;1861;50.240;8.596;2023-12-07T14:42:01;5.20;99.90
3690;DHT22;1861;50.240;8.596;2023-12-07T14:44:29;5.30;99.90
3690;DHT22;1861;50.240;8.596;2023-12-07T14:46:58;5.30;99.90
3690;DHT22;1861;50.240;8.596;2023-12-07T14:49:28;5.40;99.90
3690;DHT22;1861;50.240;8.596;2023-12-07T14:51:57;5.40;99.90
3690;DHT22;1861;50.240;8.596;2023-12-07T14:54:26;5.40;99.90
3690;DHT22;1861;50.240;8.596;2023-12-07T14:56:56;5.30;99.90
3690;DHT22;1861;50.240;8.596;2023-12-07T14:59:25;5.20;99.90
3690;DHT22;1861;50.240;8.596;2023-12-07T15:01:53;5.30;99.90
3690;DHT22;1861;50.240;8.596;2023-12-07T15:04:21;5.40;99.90
3690;DHT22;1861;50.240;8.596;2023-12-07T15:07:01;5.40;99.90
3690;DHT22;1861;50.240;8.596;2023-12-07T15:09:30;5.40;99.90
3690;DHT22;1861;50.240;8.596;2023-12-07T15:11:58;5.40;99.90
3690;DHT22;1861;50.240;8.596;2023-12-07T15:14:26;5.30;99.90
3690;DHT22;1861;50.240;8.596;2023-12-07T15:17:06;5.40;99.90
3690;DHT22;1861;50.240;8.596;2023-12-07T15:19:36;5.30;99.90
3690;DHT22;1861;50.240;8.596;2023-12-07T15:22:06;5.40;99.90
3690;DHT22;1861;50.240;8.596;2023-12-07T15:24:34;5.30;99.90
3690;DHT22;1861;50.240;8.596;2023-12-07T15:27:04;5.30;99.90
3690;DHT22;1861;50.240;8.596;2023-12-07T15:29:33;5.40;99.90
3690;DHT22;1861;50.240;8.596;2023-12-07T15:32:03;5.40;99.90
3690;DHT22;1861;50.240;8.596;2023-12-07T15:34:32;5.40;99.90
3690;DHT22;1861;50.240;8.596;2023-12-07T15:37:08;5.30;99.90
3690;DHT22;1861;50.240;8.596;2023-12-07T15:39:40;5.30;99.90
3690;DHT22;1861;50.240;8.596;2023-12-07T15:42:09;5.30;99.90
3690;DHT22;1861;50.240;8.596;2023-12-07T15:44:38;5.20;99.90
3690;DHT22;1861;50.240;8.596;2023-12-07T15:47:06;5.30;99.90
3690;DHT22;1861;50.240;8.596;2023-12-07T15:49:35;5.20;99.90
3690;DHT22;1861;50.240;8.596;2023-12-07T15:52:04;5.20;99.90
3690;DHT22;1861;50.240;8.596;2023-12-07T15:54:34;5.30;99.90
3690;DHT22;1861;50.240;8.596;2023-12-07T15:57:07;5.20;99.90
3690;DHT22;1861;50.240;8.596;2023-12-07T15:59:37;5.30;99.90
3690;DHT22;1861;50.240;8.596;2023-12-07T16:02:06;5.30;99.90
3690;DHT22;1861;50.240;8.596;2023-12-07T16:04:34;5.30;99.90
3690;DHT22;1861;50.240;8.596;2023-12-07T16:07:04;5.10;99.90
3690;DHT22;1861;50.240;8.596;2023-12-07T16:09:38;5.20;99.90
3690;DHT22;1861;50.240;8.596;2023-12-07T16:12:08;5.20;99.90
3690;DHT22;1861;50.240;8.596;2023-12-07T16:14:37;5.10;99.90
3690;DHT22;1861;50.240;8.596;2023-12-07T16:17:06;5.20;99.90
3690;DHT22;1861;50.240;8.596;2023-12-07T16:19:35;5.30;99.90
3690;DHT22;1861;50.240;8.596;2023-12-07T16:22:04;5.20;99.90
3690;DHT22;1861;50.240;8.596;2023-12-07T16:24:34;5.20;99.90
3690;DHT22;1861;50.240;8.596;2023-12-07T16:27:04;5.20;99.90
3690;DHT22;1861;50.240;8.596;2023-12-07T16:29:35;5.10;99.90
3690;DHT22;1861;50.240;8.596;2023-12-07T16:32:05;5.00;99.90